CYFBCYRT

Guest
Details From CYFB - Iqaluit
To CYRT - RANKIN INLET
Flight Number -
Tags generated
Created
Modified
Stats Distance 648 nm / 1,199 km
Max Altitude 34,000 ft / 10,363 m
Waypoints 6
Social Downloads 0
Likes 0
Share VATSIM

Download

Looking for another format? Having issues loading an existing format? Contact us
Advertisement - Login to hide

Notes

Basic altitude profile: - Ascent Rate: 2500ft/min - Ascent Speed: 250kts - Cruise Altitude: 35000ft - Cruise Speed: 420kts - Descent Rate: 1500ft/min - Descent Speed: 250kts

Route

CYFB YFB J540 YZS NCAW N6250 CYRT

ID Type Via Altitude Latitude Longitude Leg Dist Tot Dist Heading (true) Name
O CYFB APT - 0 ft / 0 m 63.75657˚ -68.55606˚ - 0 nm - Iqaluit
YFB VOR - 800 ft / 244 m 63.74167˚ -68.47333˚ 2 nm 2 nm 112° / 112° FROBAY VOR
YTE NDB J540 (AWY-HI) 34,000 ft / 10,363 m 64.22861˚ -76.52806˚ 214 nm 216 nm 281° / 274° CAPE DORSET NDB
YZS NDB J540 (AWY-HI) 34,000 ft / 10,363 m 64.14850˚ -83.30475˚ 177 nm 393 nm 271° / 265° CORAL HARBOUR NDB
N6250 FIX NCAW (AWY-HI) 28,000 ft / 8,534 m 62.83333˚ -90.00000˚ 195 nm 589 nm 249° / 243° -
O CYRT APT - 0 ft / 0 m 62.81139˚ -92.11584˚ 58 nm 647 nm 270° / 268° RANKIN INLET

Altitude Profile

Advertisement - Login to hide

Weather


0- 5 10 15 20 25 30 35+ Temperature / ° C

Clouds and Precipitation
Forecast for 2017-12-18 00:00 UTC. Updated 32 minutes ago

Ground ~20,000 ft ~40,000 ft Winds

CYFB

Details ICAO CYFB (YFB)
Name Iqaluit
Region Canada
Timezone America/Iqaluit (UTC-5.0)
Stats Elevation 110 ft / 34 m (AMSL)
Location 63.756565° -68.556058°
Runways 1
Magnetic Variation 27.539° W

METAR

CYFB 172300Z 33013KT 6SM -SN DRSN BKN016 BKN083 M21/M24 A2946 RMK SC5AC2 SLP983

Decode

TAF

TAF TAF AMD CYFB 171853Z 1718/1818 33018G30KT 6SM BLSN SCT040 TEMPO 1718/1724 4SM BLSN BKN040 PROB30 1718/1720 2SM BLSN FM180000 31015G25KT P6SM IC FEW040 FM180900 VRB03KT P6SM IC FEW030 RMK NXT FCST BY 180000Z

Decode

Departure Runways

ID Width Length Bearing (true) Bearing (mag) Surface Threshold Offset Overrun Length
17 200 ft / 61 m 8,605 ft / 2,623 m 135.58° 163.12° Asphalt 0 ft / 0 m 210 ft / 64 m
35 200 ft / 61 m 8,605 ft / 2,623 m 315.62° 343.16° Asphalt 0 ft / 0 m 243 ft / 74 m

CYRT

Details ICAO CYRT (YRT)
Name RANKIN INLET
Region Canada
Timezone America/Rankin_Inlet (UTC-6.0)
Stats Elevation 94 ft / 29 m (AMSL)
Location 62.811388° -92.115836°
Runways 1
Magnetic Variation 6.847° W

METAR

CYRT 172313Z 04005KT 10SM -SN OVC012 M20/M22 A2955 RMK SC8 SLP012

Decode

TAF

TAF CYRT 171745Z 1718/1806 VRB03KT P6SM OVC006 TEMPO 1718/1723 OVC010 FM172300 12008KT P6SM FEW006 BKN012 OVC050 PROB30 1723/1806 BKN006 RMK NXT FCST BY 180000Z

Decode

Destination Runways

ID Width Length Bearing (true) Bearing (mag) Surface Threshold Offset Overrun Length
13T 150 ft / 46 m 5,982 ft / 1,823 m 129.03° 135.88° Asphalt 0 ft / 0 m 0 ft / 0 m
31T 150 ft / 46 m 5,982 ft / 1,823 m 309.05° 315.90° Asphalt 0 ft / 0 m 0 ft / 0 m

Popular Alternatives